createdAt,value
2019-04-28T00:01:16.598Z,10.40
2019-04-28T00:03:45.064Z,10.30
2019-04-28T00:06:13.489Z,10.30
2019-04-28T00:08:42.857Z,10.30
2019-04-28T00:11:11.791Z,10.20
2019-04-28T00:13:41.773Z,10.20
2019-04-28T00:16:11.568Z,10.20
2019-04-28T00:18:41.512Z,10.20
2019-04-28T00:21:11.872Z,10.10
2019-04-28T00:23:44.536Z,10.10
2019-04-28T00:26:14.743Z,10.10
2019-04-28T00:28:43.319Z,10.10
2019-04-28T00:31:11.771Z,10.10
2019-04-28T00:33:41.014Z,10.10
2019-04-28T00:36:11.545Z,10.10
2019-04-28T00:38:41.492Z,10.10
2019-04-28T00:41:11.003Z,10.20
2019-04-28T00:43:39.588Z,10.10
2019-04-28T00:46:11.008Z,10.10
2019-04-28T00:48:40.933Z,10.20
2019-04-28T00:51:11.486Z,10.30
2019-04-28T00:53:40.940Z,10.20
2019-04-28T00:56:09.549Z,10.20
2019-04-28T00:58:38.131Z,10.30
2019-04-28T01:01:08.371Z,10.30
2019-04-28T01:03:36.943Z,10.30
2019-04-28T01:06:05.532Z,10.30
2019-04-28T01:08:34.013Z,10.40
2019-04-28T01:11:02.522Z,10.40
2019-04-28T01:13:31.936Z,10.40
2019-04-28T01:16:11.235Z,10.40
2019-04-28T01:18:44.027Z,10.40
2019-04-28T01:21:12.521Z,10.40
2019-04-28T01:23:41.015Z,10.50
2019-04-28T01:26:09.976Z,10.40
2019-04-28T01:28:39.795Z,10.50
2019-04-28T01:31:13.040Z,10.50
2019-04-28T01:33:59.891Z,10.50
2019-04-28T01:36:30.137Z,10.40
2019-04-28T01:38:59.976Z,10.40
2019-04-28T01:41:29.652Z,10.20
2019-04-28T01:44:00.082Z,10.20
2019-04-28T01:46:29.817Z,10.20
2019-04-28T01:48:59.906Z,10.00
2019-04-28T01:51:30.372Z,10.00
2019-04-28T01:54:00.167Z,10.00
2019-04-28T01:56:30.416Z,10.00
2019-04-28T01:59:00.277Z,10.00
2019-04-28T02:01:30.182Z,9.90
2019-04-28T02:04:00.258Z,9.90
2019-04-28T02:06:29.983Z,9.90
2019-04-28T02:09:00.668Z,9.80
2019-04-28T02:11:29.569Z,9.90
2019-04-28T02:13:59.727Z,9.90
2019-04-28T02:16:29.613Z,9.90
2019-04-28T02:18:59.742Z,9.90
2019-04-28T02:21:39.549Z,9.80
2019-04-28T02:24:26.539Z,9.90
2019-04-28T02:26:55.028Z,9.80
2019-04-28T02:29:23.477Z,9.80
2019-04-28T02:31:51.976Z,9.70
2019-04-28T02:34:21.126Z,9.70
2019-04-28T02:36:50.596Z,9.70
2019-04-28T02:39:20.794Z,9.70
2019-04-28T02:41:51.239Z,9.70
2019-04-28T02:44:23.005Z,9.70
2019-04-28T02:46:50.699Z,9.70
2019-04-28T02:49:23.787Z,9.60
2019-04-28T02:52:10.753Z,9.60
2019-04-28T02:54:40.390Z,9.70
2019-04-28T02:57:10.749Z,9.70
2019-04-28T02:59:40.977Z,9.70
2019-04-28T03:02:10.543Z,9.60
2019-04-28T03:04:40.831Z,9.60
2019-04-28T03:07:11.444Z,9.60
2019-04-28T03:09:40.400Z,9.50
2019-04-28T03:12:11.228Z,9.50
2019-04-28T03:14:43.465Z,9.50
2019-04-28T03:17:10.935Z,9.40
2019-04-28T03:19:41.716Z,9.40
2019-04-28T03:22:11.439Z,9.40
2019-04-28T03:24:41.313Z,9.40
2019-04-28T03:27:11.583Z,9.30
2019-04-28T03:29:41.638Z,9.40
2019-04-28T03:32:35.966Z,9.30
2019-04-28T03:34:53.739Z,9.30
2019-04-28T03:37:23.481Z,9.20
2019-04-28T03:39:50.444Z,9.20
2019-04-28T03:42:21.648Z,9.20
2019-04-28T03:44:51.102Z,9.20
2019-04-28T03:47:21.021Z,9.20
2019-04-28T03:49:50.452Z,9.20
2019-04-28T03:52:21.367Z,9.20
2019-04-28T03:54:50.865Z,9.20
2019-04-28T03:57:21.481Z,9.30
2019-04-28T03:59:51.146Z,9.20
2019-04-28T04:02:22.955Z,9.20
2019-04-28T04:04:52.734Z,9.10
2019-04-28T04:07:21.576Z,9.10
2019-04-28T04:09:54.966Z,9.00
2019-04-28T04:12:43.423Z,9.00
2019-04-28T04:15:16.642Z,9.00
2019-04-28T04:17:50.985Z,8.90
2019-04-28T04:20:23.807Z,9.00
2019-04-28T04:22:52.365Z,9.00
2019-04-28T04:25:20.879Z,9.00
2019-04-28T04:27:50.194Z,9.00
2019-04-28T04:30:20.791Z,9.00
2019-04-28T04:32:50.627Z,8.90
2019-04-28T04:35:21.461Z,9.00
2019-04-28T04:37:50.360Z,9.00
2019-04-28T04:40:21.001Z,9.00
2019-04-28T04:42:50.207Z,9.00
2019-04-28T04:45:20.278Z,9.10
2019-04-28T04:47:50.429Z,9.00
2019-04-28T04:50:20.926Z,9.00
2019-04-28T04:52:50.243Z,9.10
2019-04-28T04:55:21.056Z,9.10
2019-04-28T04:57:50.710Z,9.20
2019-04-28T05:00:21.169Z,9.10
2019-04-28T05:03:00.868Z,9.10
2019-04-28T05:05:36.817Z,9.20
2019-04-28T05:08:05.340Z,9.20
2019-04-28T05:10:33.805Z,9.20
2019-04-28T05:13:02.290Z,9.20
2019-04-28T05:15:30.779Z,9.20
2019-04-28T05:18:00.228Z,9.20
2019-04-28T05:20:30.255Z,9.20
2019-04-28T05:23:00.725Z,9.20
2019-04-28T05:25:33.307Z,9.20
2019-04-28T05:28:03.017Z,9.20
2019-04-28T05:30:34.962Z,9.30
2019-04-28T05:33:06.761Z,9.20
2019-04-28T05:35:35.785Z,9.30
2019-04-28T05:38:04.561Z,9.40
2019-04-28T05:40:34.772Z,9.40
2019-04-28T05:43:03.318Z,9.40
2019-04-28T05:45:32.344Z,9.40
2019-04-28T05:48:01.328Z,9.40
2019-04-28T05:50:33.940Z,9.40
2019-04-28T05:53:04.086Z,9.50
2019-04-28T05:55:50.169Z,9.60
2019-04-28T05:58:23.416Z,9.60
2019-04-28T06:01:02.046Z,9.70
2019-04-28T06:03:32.266Z,9.70
2019-04-28T06:06:00.876Z,9.70
2019-04-28T06:08:31.002Z,9.80
2019-04-28T06:10:59.954Z,9.70
2019-04-28T06:13:30.216Z,10.30
2019-04-28T06:15:59.857Z,10.00
2019-04-28T06:18:28.519Z,9.90
2019-04-28T06:20:57.035Z,10.00
2019-04-28T06:23:25.554Z,10.00
2019-04-28T06:25:54.108Z,10.00
2019-04-28T06:28:22.744Z,10.00
2019-04-28T06:30:51.175Z,9.90
2019-04-28T06:33:19.634Z,9.90
2019-04-28T06:35:48.056Z,10.00
2019-04-28T06:38:16.549Z,10.10
2019-04-28T06:40:45.062Z,10.20
2019-04-28T06:43:13.503Z,10.30
2019-04-28T06:45:41.970Z,10.20
2019-04-28T06:48:10.414Z,10.10
2019-04-28T06:50:38.908Z,10.10
2019-04-28T06:53:07.361Z,10.20
2019-04-28T06:55:35.789Z,10.10
2019-04-28T06:58:04.246Z,10.00
2019-04-28T07:00:32.676Z,10.20
2019-04-28T07:03:01.125Z,10.20
2019-04-28T07:05:29.566Z,10.10
2019-04-28T07:07:58.031Z,10.10
2019-04-28T07:10:26.536Z,10.20
2019-04-28T07:12:55.063Z,10.30
2019-04-28T07:15:23.536Z,10.20
2019-04-28T07:17:52.082Z,10.20
2019-04-28T07:20:38.371Z,10.20
2019-04-28T07:23:08.026Z,10.20
2019-04-28T07:25:36.492Z,10.30
2019-04-28T07:28:05.016Z,10.50
2019-04-28T07:30:34.010Z,10.50
2019-04-28T07:33:02.481Z,10.50
2019-04-28T07:35:31.073Z,10.40
2019-04-28T07:37:59.525Z,10.30
2019-04-28T07:40:28.015Z,10.40
2019-04-28T07:42:56.575Z,10.50
2019-04-28T07:45:25.046Z,10.60
2019-04-28T07:47:53.584Z,10.60
2019-04-28T07:50:22.142Z,10.80
2019-04-28T07:52:55.309Z,10.90
2019-04-28T07:55:23.812Z,11.00
2019-04-28T07:57:52.610Z,11.00
2019-04-28T08:00:28.907Z,11.00
2019-04-28T08:02:57.445Z,10.90
2019-04-28T08:05:26.032Z,10.80
2019-04-28T08:07:54.653Z,11.00
2019-04-28T08:10:23.246Z,11.00
2019-04-28T08:12:51.718Z,10.90
2019-04-28T08:15:20.254Z,11.00
2019-04-28T08:17:48.781Z,11.00
2019-04-28T08:20:17.380Z,11.10
2019-04-28T08:22:45.868Z,11.10
2019-04-28T08:25:14.351Z,11.10
2019-04-28T08:27:42.808Z,10.90
2019-04-28T08:30:11.657Z,10.90
2019-04-28T08:32:57.709Z,10.80
2019-04-28T08:35:26.296Z,11.00
2019-04-28T08:37:54.760Z,11.20
2019-04-28T08:40:23.398Z,11.10
2019-04-28T08:42:51.850Z,11.20
2019-04-28T08:45:20.410Z,11.40
2019-04-28T08:47:48.874Z,11.50
2019-04-28T08:50:17.515Z,11.50
2019-04-28T08:52:46.066Z,11.50
2019-04-28T08:55:14.530Z,11.40
2019-04-28T08:57:43.051Z,11.60
2019-04-28T09:00:13.700Z,11.80
2019-04-28T09:02:42.160Z,11.60
2019-04-28T09:05:10.870Z,11.70
2019-04-28T09:07:39.305Z,11.80
2019-04-28T09:10:07.902Z,11.90
2019-04-28T09:12:36.367Z,11.90
2019-04-28T09:15:06.753Z,11.70
2019-04-28T09:17:35.193Z,11.50
2019-04-28T09:20:04.986Z,11.60
2019-04-28T09:22:33.458Z,11.60
2019-04-28T09:25:01.904Z,11.80
2019-04-28T09:27:30.381Z,11.90
2019-04-28T09:29:58.838Z,11.70
2019-04-28T09:32:27.324Z,11.60
2019-04-28T09:34:55.766Z,11.70
2019-04-28T09:37:24.454Z,11.70
2019-04-28T09:39:54.544Z,11.50
2019-04-28T09:42:30.571Z,11.40
2019-04-28T09:45:03.753Z,11.40
2019-04-28T09:47:32.233Z,11.50
2019-04-28T09:50:00.666Z,11.70
2019-04-28T09:52:32.142Z,11.70
2019-04-28T09:55:00.607Z,11.60
2019-04-28T09:57:29.065Z,11.60
2019-04-28T09:59:57.598Z,11.60
2019-04-28T10:02:26.121Z,11.60
2019-04-28T10:04:54.549Z,11.70
2019-04-28T10:07:23.058Z,11.80
2019-04-28T10:09:51.537Z,11.90
2019-04-28T10:12:27.005Z,12.20
2019-04-28T10:14:50.138Z,12.30
2019-04-28T10:17:18.598Z,12.60
2019-04-28T10:19:47.067Z,12.80
2019-04-28T10:22:15.531Z,13.20
2019-04-28T10:24:43.995Z,13.60
2019-04-28T10:27:12.498Z,13.80
2019-04-28T10:29:40.949Z,13.30
2019-04-28T10:32:09.439Z,13.10
2019-04-28T10:34:37.867Z,12.90
2019-04-28T10:37:08.285Z,12.80
2019-04-28T10:39:41.304Z,12.60
2019-04-28T10:42:09.766Z,12.30
2019-04-28T10:44:43.031Z,12.40
2019-04-28T10:47:11.507Z,12.40
2019-04-28T10:49:39.983Z,12.60
2019-04-28T10:52:09.331Z,12.80
2019-04-28T10:54:37.844Z,13.00
2019-04-28T10:57:06.353Z,13.50
2019-04-28T10:59:34.805Z,13.80
2019-04-28T11:02:03.243Z,13.90
2019-04-28T11:04:38.997Z,13.80
2019-04-28T11:07:09.449Z,13.60
2019-04-28T11:09:45.509Z,13.50
2019-04-28T11:12:24.481Z,13.50
2019-04-28T11:14:52.923Z,13.60
2019-04-28T11:17:22.502Z,13.80
2019-04-28T11:19:50.941Z,13.70
2019-04-28T11:22:19.461Z,14.00
2019-04-28T11:24:47.895Z,14.30
2019-04-28T11:27:16.710Z,14.70
2019-04-28T11:29:45.175Z,14.80
2019-04-28T11:32:15.275Z,14.50
2019-04-28T11:34:54.406Z,13.80
2019-04-28T11:37:22.845Z,13.60
2019-04-28T11:39:51.368Z,13.30
2019-04-28T11:42:19.826Z,13.00
2019-04-28T11:44:48.252Z,12.80
2019-04-28T11:47:21.323Z,12.70
2019-04-28T11:49:49.826Z,12.60
2019-04-28T11:52:18.361Z,12.80
2019-04-28T11:54:46.785Z,13.10
2019-04-28T11:57:15.250Z,13.10
2019-04-28T11:59:43.677Z,13.10
2019-04-28T12:02:12.106Z,13.30
2019-04-28T12:04:40.571Z,13.20
2019-04-28T12:07:09.683Z,13.20
2019-04-28T12:09:39.751Z,13.40
2019-04-28T12:12:12.295Z,13.20
2019-04-28T12:14:48.384Z,13.10
2019-04-28T12:17:35.149Z,13.30
2019-04-28T12:20:11.044Z,13.20
2019-04-28T12:22:39.644Z,13.20
2019-04-28T12:25:08.300Z,13.20
2019-04-28T12:27:36.828Z,13.40
2019-04-28T12:30:06.131Z,13.50
2019-04-28T12:32:34.560Z,13.60
2019-04-28T12:35:03.027Z,13.70
2019-04-28T12:37:31.463Z,13.80
2019-04-28T12:39:59.927Z,14.80
2019-04-28T12:42:28.415Z,16.00
2019-04-28T12:44:56.907Z,16.80
2019-04-28T12:47:25.338Z,16.50
2019-04-28T12:49:58.082Z,16.00
2019-04-28T12:52:26.531Z,16.00
2019-04-28T12:54:54.961Z,16.20
2019-04-28T12:57:23.432Z,15.30
2019-04-28T12:59:53.548Z,15.40
2019-04-28T13:02:23.615Z,15.50
2019-04-28T13:05:11.814Z,16.00
2019-04-28T13:07:40.254Z,15.40
2019-04-28T13:10:09.969Z,15.30
2019-04-28T13:12:38.405Z,14.80
2019-04-28T13:15:07.021Z,14.10
2019-04-28T13:17:35.473Z,13.80
2019-04-28T13:20:04.073Z,13.60
2019-04-28T13:22:32.526Z,13.50
2019-04-28T13:25:00.991Z,13.40
2019-04-28T13:27:29.416Z,13.40
2019-04-28T13:29:57.846Z,13.50
2019-04-28T13:32:26.327Z,13.80
2019-04-28T13:34:54.777Z,14.10
2019-04-28T13:37:23.230Z,14.30
2019-04-28T13:39:56.102Z,14.30
2019-04-28T13:42:24.568Z,14.50
2019-04-28T13:44:57.300Z,14.00
2019-04-28T13:47:25.750Z,14.00
2019-04-28T13:49:58.774Z,14.00
2019-04-28T13:52:27.271Z,14.00
2019-04-28T13:54:57.371Z,14.20
2019-04-28T13:57:25.789Z,14.40
2019-04-28T14:00:07.895Z,14.80
2019-04-28T14:02:40.733Z,15.20
2019-04-28T14:05:11.570Z,15.10
2019-04-28T14:07:40.038Z,14.80
2019-04-28T14:10:08.656Z,14.40
2019-04-28T14:12:37.088Z,14.30
2019-04-28T14:15:06.191Z,14.30
2019-04-28T14:17:34.613Z,14.40
2019-04-28T14:20:03.471Z,14.40
2019-04-28T14:22:31.929Z,14.40
2019-04-28T14:25:00.403Z,14.30
2019-04-28T14:27:28.863Z,14.10
2019-04-28T14:29:57.299Z,13.90
2019-04-28T14:32:25.759Z,13.60
2019-04-28T14:34:54.296Z,13.60
2019-04-28T14:37:22.748Z,13.50
2019-04-28T14:39:51.277Z,13.30
2019-04-28T14:42:19.697Z,13.40
2019-04-28T14:44:48.164Z,13.40
2019-04-28T14:47:16.588Z,13.50
2019-04-28T14:49:45.041Z,13.50
2019-04-28T14:52:13.470Z,13.30
2019-04-28T14:54:41.933Z,13.50
2019-04-28T14:57:10.367Z,13.70
2019-04-28T14:59:38.874Z,13.90
2019-04-28T15:02:11.618Z,13.90
2019-04-28T15:04:53.915Z,13.90
2019-04-28T15:07:41.921Z,14.00
2019-04-28T15:10:24.538Z,14.20
2019-04-28T15:12:53.001Z,14.00
2019-04-28T15:15:21.634Z,13.80
2019-04-28T15:17:50.095Z,13.80
2019-04-28T15:20:18.757Z,13.70
2019-04-28T15:22:47.192Z,13.80
2019-04-28T15:25:15.658Z,14.00
2019-04-28T15:27:44.085Z,14.00
2019-04-28T15:30:12.708Z,14.00
2019-04-28T15:32:41.175Z,14.00
2019-04-28T15:35:10.087Z,14.00
2019-04-28T15:37:38.535Z,13.90
2019-04-28T15:40:07.896Z,13.90
2019-04-28T15:42:36.352Z,13.90
2019-04-28T15:45:06.042Z,14.10
2019-04-28T15:47:34.492Z,14.30
2019-04-28T15:50:03.310Z,14.20
2019-04-28T15:52:31.737Z,14.10
2019-04-28T15:55:00.613Z,13.90
2019-04-28T15:57:29.036Z,13.60
2019-04-28T15:59:57.485Z,13.60
2019-04-28T16:02:25.919Z,13.50
2019-04-28T16:04:54.391Z,13.50
2019-04-28T16:07:24.949Z,13.40
2019-04-28T16:09:53.000Z,13.40
2019-04-28T16:12:21.424Z,13.30
2019-04-28T16:14:49.910Z,13.40
2019-04-28T16:17:20.063Z,13.50
2019-04-28T16:19:48.678Z,13.50
2019-04-28T16:22:17.093Z,13.60
2019-04-28T16:24:45.602Z,13.50
2019-04-28T16:27:14.065Z,13.40
2019-04-28T16:29:42.553Z,13.50
2019-04-28T16:32:11.094Z,13.50
2019-04-28T16:34:40.200Z,13.40
2019-04-28T16:37:08.630Z,13.30
2019-04-28T16:39:37.091Z,13.30
2019-04-28T16:42:05.629Z,13.20
2019-04-28T16:44:34.059Z,13.30
2019-04-28T16:47:02.534Z,13.20
2019-04-28T16:49:30.960Z,13.20
2019-04-28T16:51:59.408Z,13.30
2019-04-28T16:54:27.855Z,13.40
2019-04-28T16:57:03.730Z,13.70
2019-04-28T16:59:48.898Z,13.70
2019-04-28T17:02:18.994Z,13.60
2019-04-28T17:04:47.431Z,13.30
2019-04-28T17:07:15.875Z,13.10
2019-04-28T17:09:44.329Z,13.00
2019-04-28T17:12:12.822Z,13.00
2019-04-28T17:14:41.277Z,13.00
2019-04-28T17:17:10.379Z,12.90
2019-04-28T17:19:38.836Z,12.90
2019-04-28T17:22:07.302Z,12.90
2019-04-28T17:24:35.756Z,12.90
2019-04-28T17:27:04.307Z,12.90
2019-04-28T17:29:32.820Z,12.90
2019-04-28T17:32:01.296Z,12.90
2019-04-28T17:34:29.725Z,12.80
2019-04-28T17:36:58.177Z,12.80
2019-04-28T17:39:26.710Z,12.80
2019-04-28T17:41:55.226Z,12.80
2019-04-28T17:44:23.690Z,12.80
2019-04-28T17:46:53.020Z,12.70
2019-04-28T17:49:23.139Z,12.70
2019-04-28T17:51:51.667Z,12.60
2019-04-28T17:54:20.143Z,12.70
2019-04-28T17:56:48.689Z,12.60
2019-04-28T17:59:17.255Z,12.70
2019-04-28T18:01:53.375Z,12.60
2019-04-28T18:04:38.557Z,12.60
2019-04-28T18:07:11.375Z,12.60
2019-04-28T18:09:40.512Z,12.60
2019-04-28T18:12:08.968Z,12.50
2019-04-28T18:14:38.717Z,12.40
2019-04-28T18:17:25.138Z,12.40
2019-04-28T18:19:53.626Z,12.40
2019-04-28T18:22:22.058Z,12.30
2019-04-28T18:24:50.529Z,12.30
2019-04-28T18:27:18.959Z,12.20
2019-04-28T18:29:47.382Z,12.20
2019-04-28T18:32:29.343Z,12.20
2019-04-28T18:35:08.414Z,12.20
2019-04-28T18:37:38.522Z,12.10
2019-04-28T18:40:17.802Z,12.10
2019-04-28T18:43:02.507Z,12.10
2019-04-28T18:45:30.974Z,12.00
2019-04-28T18:47:59.427Z,12.00
2019-04-28T18:50:27.849Z,12.00
2019-04-28T18:52:56.309Z,12.00
2019-04-28T18:55:24.746Z,11.90
2019-04-28T18:57:53.201Z,11.90
2019-04-28T19:00:23.287Z,11.90
2019-04-28T19:02:51.748Z,11.80
2019-04-28T19:05:21.551Z,11.80
2019-04-28T19:07:57.586Z,12.00
2019-04-28T19:10:36.345Z,11.90
2019-04-28T19:13:06.418Z,11.80
2019-04-28T19:15:52.607Z,11.70
2019-04-28T19:18:31.825Z,11.70
2019-04-28T19:21:00.261Z,11.60
2019-04-28T19:23:28.726Z,11.50
2019-04-28T19:25:57.171Z,11.50
2019-04-28T19:28:25.608Z,11.50
2019-04-28T19:30:54.079Z,11.40
2019-04-28T19:33:22.534Z,11.40
2019-04-28T19:35:50.981Z,11.40
2019-04-28T19:38:19.432Z,11.40
2019-04-28T19:40:47.896Z,11.30
2019-04-28T19:43:16.367Z,11.30
2019-04-28T19:45:45.947Z,11.30
2019-04-28T19:48:14.400Z,11.20
2019-04-28T19:50:42.842Z,11.20
2019-04-28T19:53:11.327Z,11.10
2019-04-28T19:55:58.666Z,11.10
2019-04-28T19:58:31.452Z,11.00
2019-04-28T20:01:01.562Z,11.00
2019-04-28T20:03:30.082Z,10.90
2019-04-28T20:05:58.926Z,10.90
2019-04-28T20:08:27.443Z,10.90
2019-04-28T20:10:55.904Z,10.90
2019-04-28T20:13:24.337Z,10.80
2019-04-28T20:15:52.817Z,10.80
2019-04-28T20:18:21.255Z,10.80
2019-04-28T20:20:49.766Z,10.80
2019-04-28T20:23:18.208Z,10.80
2019-04-28T20:25:47.679Z,10.80
2019-04-28T20:28:16.173Z,10.80
2019-04-28T20:30:44.669Z,10.80
2019-04-28T20:33:13.160Z,10.80
2019-04-28T20:35:43.313Z,10.80
2019-04-28T20:38:16.086Z,10.70
2019-04-28T20:40:46.219Z,10.80
2019-04-28T20:43:19.104Z,10.80
2019-04-28T20:45:47.638Z,10.80
2019-04-28T20:48:16.097Z,10.80
2019-04-28T20:50:44.585Z,10.80
2019-04-28T20:53:13.043Z,10.80
2019-04-28T20:55:41.475Z,10.80
2019-04-28T20:58:10.844Z,10.80
2019-04-28T21:00:39.279Z,10.70
2019-04-28T21:03:07.809Z,10.60
2019-04-28T21:05:36.269Z,10.60
2019-04-28T21:08:04.726Z,10.60
2019-04-28T21:10:38.401Z,10.60
2019-04-28T21:13:03.507Z,10.50
2019-04-28T21:15:31.949Z,10.50
2019-04-28T21:18:00.787Z,10.50
2019-04-28T21:20:29.227Z,10.40
2019-04-28T21:22:57.717Z,10.40
2019-04-28T21:25:26.200Z,10.50
2019-04-28T21:27:54.620Z,10.50
2019-04-28T21:30:23.090Z,10.50
2019-04-28T21:32:51.547Z,10.50
2019-04-28T21:35:20.336Z,10.50
2019-04-28T21:37:48.794Z,10.50
2019-04-28T21:40:18.195Z,10.50
2019-04-28T21:42:54.255Z,10.50
2019-04-28T21:45:40.357Z,10.50
2019-04-28T21:48:09.207Z,10.50
2019-04-28T21:50:37.679Z,10.50
2019-04-28T21:53:06.125Z,10.50
2019-04-28T21:55:34.573Z,10.50
2019-04-28T21:58:03.042Z,10.40
2019-04-28T22:00:39.051Z,10.40
2019-04-28T22:03:07.907Z,10.40
2019-04-28T22:05:36.357Z,10.50
2019-04-28T22:08:04.870Z,10.50
2019-04-28T22:10:33.324Z,10.50
2019-04-28T22:13:01.758Z,10.40
2019-04-28T22:15:30.176Z,10.50
2019-04-28T22:17:58.643Z,10.50
2019-04-28T22:20:27.119Z,10.40
2019-04-28T22:22:56.877Z,10.50
2019-04-28T22:25:25.782Z,10.50
2019-04-28T22:27:54.243Z,10.40
2019-04-28T22:30:22.666Z,10.40
2019-04-28T22:32:51.116Z,10.40
2019-04-28T22:35:19.544Z,10.50
2019-04-28T22:37:48.016Z,10.50
2019-04-28T22:40:16.464Z,10.50
2019-04-28T22:42:45.238Z,10.50
2019-04-28T22:45:14.235Z,10.50
2019-04-28T22:47:42.670Z,10.40
2019-04-28T22:50:14.194Z,10.50
2019-04-28T22:52:42.625Z,10.40
2019-04-28T22:55:12.788Z,10.40
2019-04-28T22:57:59.250Z,10.40
2019-04-28T23:00:41.700Z,10.40
2019-04-28T23:03:13.322Z,10.50
2019-04-28T23:05:41.781Z,10.40
2019-04-28T23:08:11.144Z,10.50
2019-04-28T23:10:39.600Z,10.40
2019-04-28T23:13:08.041Z,10.40
2019-04-28T23:15:36.506Z,10.40
2019-04-28T23:18:04.969Z,10.40
2019-04-28T23:20:35.043Z,10.30
2019-04-28T23:23:05.152Z,10.30
2019-04-28T23:25:33.655Z,10.30
2019-04-28T23:28:02.120Z,10.30
2019-04-28T23:30:41.970Z,10.30
2019-04-28T23:33:11.194Z,10.30
2019-04-28T23:35:39.788Z,10.30
2019-04-28T23:38:08.230Z,10.30
2019-04-28T23:40:38.316Z,10.20
2019-04-28T23:43:22.084Z,10.30
2019-04-28T23:45:50.540Z,10.20
2019-04-28T23:48:19.001Z,10.30
2019-04-28T23:50:54.928Z,10.20
2019-04-28T23:53:41.701Z,10.20
2019-04-28T23:56:11.041Z,10.20
2019-04-28T23:58:39.588Z,10.20
